Time;durP1;ratioP1;P1;durP2;ratioP2;P2;SDS_P1;SDS_P2;PMS_P1;PMS_P2;Temp;Humidity;BMP_temperature;BMP_pressure;BME280_temperature;BME280_humidity;BME280_pressure;Samples;Min_cycle;Max_cycle;Signal;HPM_P1;HPM_P2
2023/09/28 00:00:38;;;;;;;;;;;24.30;74.60;;;;;;5125115;27;19911;-47
2023/09/28 00:03:06;;;;;;;;;;;24.30;74.70;;;;;;5117864;28;19916;-48
2023/09/28 00:05:32;;;;;;;;;;;24.30;74.60;;;;;;5117544;28;19907;-49
2023/09/28 00:07:58;;;;;;;;;;;24.30;74.70;;;;;;5124846;28;19959;-47
2023/09/28 00:10:24;;;;;;;;;;;24.30;74.60;;;;;;5124300;27;20006;-50
2023/09/28 00:12:52;;;;;;;;;;;24.30;74.60;;;;;;5117216;28;19951;-48
2023/09/28 00:15:19;;;;;;;;;;;24.30;74.50;;;;;;5120703;27;19972;-50
2023/09/28 00:17:47;;;;;;;;;;;24.30;74.20;;;;;;5138964;27;19919;-49
2023/09/28 00:20:16;;;;;;;;;;;24.30;74.20;;;;;;5124200;27;19923;-48
2023/09/28 00:22:42;;;;;;;;;;;24.20;74.00;;;;;;5100625;28;19943;-48
2023/09/28 00:25:12;;;;;;;;;;;24.30;74.00;;;;;;5124836;27;19912;-49
2023/09/28 00:27:38;;;;;;;;;;;24.20;74.00;;;;;;5123792;28;19972;-50
2023/09/28 00:30:09;;;;;;;;;;;24.20;74.00;;;;;;5124596;27;20006;-49
2023/09/28 00:32:35;;;;;;;;;;;24.20;74.00;;;;;;5124178;28;19919;-48
2023/09/28 00:35:04;;;;;;;;;;;24.20;74.00;;;;;;5119371;28;19920;-48
2023/09/28 00:37:30;;;;;;;;;;;24.20;74.00;;;;;;5116811;28;19911;-48
2023/09/28 00:39:56;;;;;;;;;;;24.20;73.90;;;;;;5116236;28;19947;-50
2023/09/28 00:42:22;;;;;;;;;;;24.20;74.00;;;;;;5124316;28;19918;-48
2023/09/28 00:44:48;;;;;;;;;;;24.20;74.00;;;;;;5123324;27;19919;-52
2023/09/28 00:47:14;;;;;;;;;;;24.20;74.00;;;;;;5123064;28;19919;-50
2023/09/28 00:49:42;;;;;;;;;;;24.20;73.90;;;;;;5138195;27;19970;-48
2023/09/28 00:52:08;;;;;;;;;;;24.20;73.90;;;;;;5124277;28;19911;-48
2023/09/28 00:54:34;;;;;;;;;;;24.20;73.90;;;;;;5123419;28;19926;-52
2023/09/28 00:57:00;;;;;;;;;;;24.20;74.00;;;;;;5123522;28;19916;-48
2023/09/28 00:59:26;;;;;;;;;;;24.20;74.00;;;;;;5124479;27;20296;-49
2023/09/28 01:01:54;;;;;;;;;;;24.20;73.90;;;;;;5121041;28;19979;-49
2023/09/28 01:04:22;;;;;;;;;;;24.20;74.00;;;;;;5118181;28;19912;-50
2023/09/28 01:06:48;;;;;;;;;;;24.20;73.90;;;;;;5120478;28;19922;-50
2023/09/28 01:09:15;;;;;;;;;;;24.20;73.90;;;;;;5099790;28;19908;-50
2023/09/28 01:11:42;;;;;;;;;;;24.20;73.80;;;;;;5123110;28;19908;-48
2023/09/28 01:14:07;;;;;;;;;;;24.20;73.90;;;;;;5114956;28;19916;-52
2023/09/28 01:16:34;;;;;;;;;;;24.10;73.80;;;;;;5122129;27;19916;-48
2023/09/28 01:19:00;;;;;;;;;;;24.10;73.80;;;;;;5123675;28;19918;-48
2023/09/28 01:21:26;;;;;;;;;;;24.10;73.80;;;;;;5123366;28;19908;-51
2023/09/28 01:23:51;;;;;;;;;;;24.10;73.80;;;;;;5118849;28;19915;-48
2023/09/28 01:26:18;;;;;;;;;;;24.10;73.80;;;;;;5120309;28;19911;-50
2023/09/28 01:28:44;;;;;;;;;;;24.10;73.80;;;;;;5136633;27;19947;-49
2023/09/28 01:31:13;;;;;;;;;;;24.10;73.70;;;;;;5115874;28;19934;-48
2023/09/28 01:33:39;;;;;;;;;;;24.10;73.70;;;;;;5118775;28;19911;-51
2023/09/28 01:36:07;;;;;;;;;;;24.10;73.70;;;;;;5123394;28;19923;-49
2023/09/28 01:38:44;;;;;;;;;;;24.10;73.70;;;;;;5122003;27;19912;-50
2023/09/28 01:41:12;;;;;;;;;;;24.10;73.80;;;;;;5136389;27;19916;-51
2023/09/28 01:43:38;;;;;;;;;;;24.10;73.70;;;;;;5123344;27;19914;-48
2023/09/28 01:46:05;;;;;;;;;;;24.10;73.80;;;;;;5122773;28;19919;-48
2023/09/28 01:48:31;;;;;;;;;;;24.10;73.80;;;;;;5122631;28;19918;-49
2023/09/28 01:50:58;;;;;;;;;;;24.10;73.70;;;;;;5115839;28;19947;-48
2023/09/28 01:53:23;;;;;;;;;;;24.10;73.80;;;;;;5123003;27;19995;-48
2023/09/28 01:55:50;;;;;;;;;;;24.10;73.70;;;;;;5121964;28;19954;-52
2023/09/28 01:58:16;;;;;;;;;;;24.10;73.80;;;;;;5120366;28;19919;-51
2023/09/28 02:00:45;;;;;;;;;;;24.10;73.70;;;;;;5122719;27;20394;-52
2023/09/28 02:03:11;;;;;;;;;;;24.10;73.70;;;;;;5122973;28;19911;-48
2023/09/28 02:05:38;;;;;;;;;;;24.10;73.70;;;;;;5122005;28;19953;-49
2023/09/28 02:08:07;;;;;;;;;;;24.10;73.60;;;;;;5120138;28;19933;-52
2023/09/28 02:10:33;;;;;;;;;;;24.00;73.50;;;;;;5121492;28;19968;-54
2023/09/28 02:12:59;;;;;;;;;;;24.00;73.50;;;;;;5104492;28;19912;-53
2023/09/28 02:15:25;;;;;;;;;;;24.00;73.50;;;;;;5121179;28;19920;-52
2023/09/28 02:17:51;;;;;;;;;;;24.00;73.50;;;;;;5122926;28;19950;-50
2023/09/28 02:20:22;;;;;;;;;;;24.00;73.50;;;;;;5130813;27;19912;-51
2023/09/28 02:22:50;;;;;;;;;;;24.00;73.60;;;;;;5122224;28;19938;-50
2023/09/28 02:25:24;;;;;;;;;;;24.00;73.50;;;;;;5109363;28;19912;-53
2023/09/28 02:27:50;;;;;;;;;;;24.00;73.60;;;;;;5122163;28;19919;-49
2023/09/28 02:30:19;;;;;;;;;;;24.00;73.50;;;;;;5123402;28;19919;-50
2023/09/28 02:32:53;;;;;;;;;;;24.00;73.60;;;;;;5118093;28;19971;-49
2023/09/28 02:35:19;;;;;;;;;;;24.00;73.50;;;;;;5118569;28;20014;-47
2023/09/28 02:37:46;;;;;;;;;;;24.00;73.60;;;;;;5115392;28;19965;-49
2023/09/28 02:40:12;;;;;;;;;;;24.00;73.50;;;;;;5113943;28;19937;-49
2023/09/28 02:42:39;;;;;;;;;;;24.00;74.20;;;;;;5116798;28;20000;-49
2023/09/28 02:45:11;;;;;;;;;;;24.00;73.50;;;;;;5117740;28;19919;-49
2023/09/28 02:47:37;;;;;;;;;;;23.90;73.50;;;;;;5121402;28;19907;-49
2023/09/28 02:50:06;;;;;;;;;;;23.90;73.50;;;;;;5119954;28;19935;-49
2023/09/28 02:52:32;;;;;;;;;;;23.90;73.50;;;;;;5118944;28;19956;-49
2023/09/28 02:54:58;;;;;;;;;;;23.90;73.50;;;;;;5125843;28;19931;-51
2023/09/28 02:57:24;;;;;;;;;;;23.90;73.50;;;;;;5122586;28;19915;-51
2023/09/28 02:59:50;;;;;;;;;;;23.90;73.50;;;;;;5128777;27;19919;-50
2023/09/28 03:02:16;;;;;;;;;;;23.90;73.60;;;;;;5127143;27;19912;-51
2023/09/28 03:04:42;;;;;;;;;;;23.90;73.50;;;;;;5124571;28;19958;-50
2023/09/28 03:07:08;;;;;;;;;;;23.90;73.50;;;;;;5125952;28;19915;-52
2023/09/28 03:09:34;;;;;;;;;;;23.90;73.50;;;;;;5126862;27;19919;-48
2023/09/28 03:11:59;;;;;;;;;;;23.80;73.50;;;;;;5126352;28;19911;-48
2023/09/28 03:14:26;;;;;;;;;;;23.80;73.50;;;;;;5121854;27;20537;-49
2023/09/28 03:16:53;;;;;;;;;;;23.80;73.50;;;;;;5125760;27;19912;-50
2023/09/28 03:19:19;;;;;;;;;;;23.80;73.50;;;;;;5122156;28;20661;-47
2023/09/28 03:21:45;;;;;;;;;;;23.80;73.50;;;;;;5125511;27;19983;-48
2023/09/28 03:24:10;;;;;;;;;;;23.80;73.50;;;;;;5124627;28;20332;-48
2023/09/28 03:26:37;;;;;;;;;;;23.80;73.60;;;;;;5123177;28;19907;-48
2023/09/28 03:29:03;;;;;;;;;;;23.80;73.60;;;;;;5124984;28;19965;-49
2023/09/28 03:31:30;;;;;;;;;;;23.80;73.50;;;;;;5138348;27;19912;-50
2023/09/28 03:33:58;;;;;;;;;;;23.80;73.60;;;;;;5117614;28;20310;-49
2023/09/28 03:36:25;;;;;;;;;;;23.80;73.50;;;;;;5123284;27;19911;-49
2023/09/28 03:38:51;;;;;;;;;;;23.80;73.50;;;;;;5124006;27;19912;-49
2023/09/28 03:41:17;;;;;;;;;;;23.80;73.60;;;;;;5125518;28;19911;-48
2023/09/28 03:43:44;;;;;;;;;;;23.80;73.50;;;;;;5124994;28;20674;-48
2023/09/28 03:46:10;;;;;;;;;;;23.80;73.60;;;;;;5128823;27;19918;-53
2023/09/28 03:48:36;;;;;;;;;;;23.70;73.40;;;;;;5125107;28;19912;-50
2023/09/28 03:51:02;;;;;;;;;;;23.70;73.40;;;;;;5124363;28;19912;-49
2023/09/28 03:53:27;;;;;;;;;;;23.70;74.20;;;;;;5120604;28;19911;-49
2023/09/28 03:55:54;;;;;;;;;;;23.70;73.80;;;;;;5124720;28;19916;-49
2023/09/28 03:58:21;;;;;;;;;;;23.70;73.50;;;;;;5120984;28;19927;-48
2023/09/28 04:00:48;;;;;;;;;;;23.70;73.50;;;;;;5123953;28;19911;-52
2023/09/28 04:03:14;;;;;;;;;;;23.70;73.50;;;;;;5119982;28;19912;-48
2023/09/28 04:05:40;;;;;;;;;;;23.70;73.50;;;;;;5119597;28;19935;-48
2023/09/28 04:08:07;;;;;;;;;;;23.70;73.50;;;;;;5119472;28;20364;-52
2023/09/28 04:10:33;;;;;;;;;;;23.70;73.50;;;;;;5130040;28;19918;-53
2023/09/28 04:13:01;;;;;;;;;;;23.70;73.50;;;;;;5116699;28;20391;-51
2023/09/28 04:15:27;;;;;;;;;;;23.70;73.60;;;;;;5119004;28;19920;-49
2023/09/28 04:17:52;;;;;;;;;;;23.60;73.50;;;;;;5122857;28;19931;-49
2023/09/28 04:20:19;;;;;;;;;;;23.60;73.60;;;;;;5119460;28;19936;-51
2023/09/28 04:22:45;;;;;;;;;;;23.60;73.50;;;;;;5118117;28;20303;-50
2023/09/28 04:25:11;;;;;;;;;;;23.60;73.50;;;;;;5100577;28;19911;-49
2023/09/28 04:27:37;;;;;;;;;;;23.60;73.60;;;;;;5116097;28;19919;-51
2023/09/28 04:30:03;;;;;;;;;;;23.60;73.60;;;;;;5125092;28;19915;-51
2023/09/28 04:32:31;;;;;;;;;;;23.60;73.50;;;;;;5127522;28;19912;-52
2023/09/28 04:34:57;;;;;;;;;;;23.60;73.60;;;;;;5116655;28;19919;-49
2023/09/28 04:37:25;;;;;;;;;;;23.60;73.60;;;;;;5126501;28;20607;-48
2023/09/28 04:39:53;;;;;;;;;;;23.60;73.50;;;;;;5123848;28;20380;-50
2023/09/28 04:42:20;;;;;;;;;;;23.60;73.60;;;;;;5121704;28;19915;-52
2023/09/28 04:44:46;;;;;;;;;;;23.50;73.50;;;;;;5120680;28;19911;-53
2023/09/28 04:47:13;;;;;;;;;;;23.60;73.60;;;;;;5124928;28;19911;-53
2023/09/28 04:49:40;;;;;;;;;;;23.50;73.50;;;;;;5119692;28;20002;-50
2023/09/28 04:52:06;;;;;;;;;;;23.50;73.50;;;;;;5115912;28;19943;-53
2023/09/28 04:54:33;;;;;;;;;;;23.50;73.50;;;;;;5121492;28;19926;-52
2023/09/28 04:56:59;;;;;;;;;;;23.50;73.60;;;;;;5074399;27;1720994;-51
2023/09/28 04:59:25;;;;;;;;;;;23.50;73.60;;;;;;5137988;27;19912;-49
2023/09/28 05:01:51;;;;;;;;;;;23.50;73.60;;;;;;5122961;27;19923;-51
2023/09/28 05:04:17;;;;;;;;;;;23.50;73.60;;;;;;5123605;28;20280;-53
2023/09/28 05:06:43;;;;;;;;;;;23.50;73.60;;;;;;5124235;28;19911;-49
2023/09/28 05:09:10;;;;;;;;;;;23.40;73.50;;;;;;5120835;28;20363;-53
2023/09/28 05:11:37;;;;;;;;;;;23.40;73.60;;;;;;5124465;28;20005;-51
2023/09/28 05:14:24;;;;;;;;;;;23.40;73.50;;;;;;5040705;28;19928;-48
2023/09/28 05:16:50;;;;;;;;;;;23.40;73.60;;;;;;5039668;28;19913;-48
2023/09/28 05:19:16;;;;;;;;;;;23.40;73.60;;;;;;5040446;28;19913;-48
2023/09/28 05:21:42;;;;;;;;;;;23.40;73.60;;;;;;5024224;28;19951;-49
2023/09/28 05:24:08;;;;;;;;;;;23.30;73.60;;;;;;5040909;28;20390;-52
2023/09/28 05:26:34;;;;;;;;;;;23.30;73.60;;;;;;5040634;28;19967;-49
2023/09/28 05:29:00;;;;;;;;;;;23.30;73.60;;;;;;5039774;28;20076;-51
2023/09/28 05:31:26;;;;;;;;;;;23.30;73.60;;;;;;5040126;28;20012;-52
2023/09/28 05:33:52;;;;;;;;;;;23.30;73.60;;;;;;5041697;28;19913;-48
2023/09/28 05:36:20;;;;;;;;;;;23.30;73.70;;;;;;5040731;28;19984;-48
2023/09/28 05:38:46;;;;;;;;;;;23.30;73.70;;;;;;5040009;28;19920;-48
2023/09/28 05:41:12;;;;;;;;;;;23.30;73.60;;;;;;5040137;28;19913;-49
2023/09/28 05:43:38;;;;;;;;;;;23.30;73.70;;;;;;5040033;28;19924;-48
2023/09/28 05:46:04;;;;;;;;;;;23.30;73.70;;;;;;5039663;28;19980;-51
2023/09/28 05:48:30;;;;;;;;;;;23.20;73.70;;;;;;5043757;28;19991;-48
2023/09/28 05:50:56;;;;;;;;;;;23.20;73.60;;;;;;5060784;28;19918;-49
2023/09/28 05:53:22;;;;;;;;;;;23.20;73.60;;;;;;5102217;28;20696;-49
2023/09/28 05:55:50;;;;;;;;;;;23.20;73.60;;;;;;5103995;28;19996;-50
2023/09/28 05:58:16;;;;;;;;;;;23.20;73.60;;;;;;5100625;28;19915;-49
2023/09/28 06:00:42;;;;;;;;;;;23.20;73.60;;;;;;5113938;28;19912;-48
2023/09/28 06:03:07;;;;;;;;;;;23.20;73.70;;;;;;5122104;27;19968;-49
2023/09/28 06:05:33;;;;;;;;;;;23.20;73.70;;;;;;5122046;28;19929;-50
2023/09/28 06:08:02;;;;;;;;;;;23.20;73.70;;;;;;5120112;28;19950;-49
2023/09/28 06:10:28;;;;;;;;;;;23.10;73.70;;;;;;5122307;27;19907;-49
2023/09/28 06:12:54;;;;;;;;;;;23.10;73.80;;;;;;5121269;28;19918;-49
2023/09/28 06:15:20;;;;;;;;;;;23.10;73.70;;;;;;5120706;28;19926;-51
2023/09/28 06:17:45;;;;;;;;;;;23.10;73.70;;;;;;5120478;28;19915;-50
2023/09/28 06:20:12;;;;;;;;;;;23.10;73.70;;;;;;5114157;28;19912;-49
2023/09/28 06:22:38;;;;;;;;;;;23.10;73.80;;;;;;5121281;28;20283;-48
2023/09/28 06:25:05;;;;;;;;;;;23.10;73.80;;;;;;5111166;28;19919;-48
2023/09/28 06:27:32;;;;;;;;;;;23.10;73.80;;;;;;5118513;28;20291;-49
2023/09/28 06:29:57;;;;;;;;;;;23.00;73.70;;;;;;5115243;28;19918;-48
2023/09/28 06:32:23;;;;;;;;;;;23.10;73.80;;;;;;5121745;28;19930;-48
2023/09/28 06:34:49;;;;;;;;;;;23.00;73.80;;;;;;5121485;28;19930;-50
2023/09/28 06:37:15;;;;;;;;;;;23.00;73.80;;;;;;5120177;28;19994;-49
2023/09/28 06:39:42;;;;;;;;;;;23.00;73.80;;;;;;5121823;28;19951;-48
2023/09/28 06:42:07;;;;;;;;;;;23.00;73.80;;;;;;5121650;28;19912;-49
2023/09/28 06:44:36;;;;;;;;;;;23.00;73.80;;;;;;5122646;28;19911;-51
2023/09/28 06:47:02;;;;;;;;;;;23.00;73.90;;;;;;5122062;28;19919;-49
2023/09/28 06:49:28;;;;;;;;;;;22.90;73.80;;;;;;5117069;28;19908;-48
2023/09/28 06:51:54;;;;;;;;;;;22.90;73.90;;;;;;5121621;28;20269;-48
2023/09/28 06:54:23;;;;;;;;;;;22.90;73.80;;;;;;5121425;28;19923;-49
2023/09/28 06:56:49;;;;;;;;;;;22.90;73.80;;;;;;5121266;28;19919;-48
2023/09/28 06:59:14;;;;;;;;;;;22.90;73.80;;;;;;5112947;28;19953;-48
2023/09/28 07:01:40;;;;;;;;;;;22.90;73.90;;;;;;5119972;28;19922;-49
2023/09/28 07:04:06;;;;;;;;;;;22.90;73.90;;;;;;5118756;28;19950;-48
2023/09/28 07:06:33;;;;;;;;;;;22.90;73.90;;;;;;5119383;28;19919;-48
2023/09/28 07:08:59;;;;;;;;;;;22.90;74.00;;;;;;5118357;28;20031;-51
2023/09/28 07:11:26;;;;;;;;;;;22.90;73.90;;;;;;5118816;28;19918;-51
2023/09/28 07:13:52;;;;;;;;;;;22.90;73.90;;;;;;5121348;28;19916;-49
2023/09/28 07:16:18;;;;;;;;;;;22.90;74.00;;;;;;5121084;28;19943;-50
2023/09/28 07:18:44;;;;;;;;;;;22.90;74.00;;;;;;5121505;28;19919;-49
2023/09/28 07:21:10;;;;;;;;;;;22.80;74.00;;;;;;5121248;28;20450;-48
2023/09/28 07:23:37;;;;;;;;;;;22.80;74.60;;;;;;5121209;28;19908;-50
2023/09/28 07:26:11;;;;;;;;;;;22.80;74.00;;;;;;5121350;28;19918;-49
2023/09/28 07:28:37;;;;;;;;;;;22.80;73.90;;;;;;5119898;28;19915;-48
2023/09/28 07:31:03;;;;;;;;;;;22.80;74.00;;;;;;5103887;28;19930;-49
2023/09/28 07:33:29;;;;;;;;;;;22.80;74.00;;;;;;5121827;28;20594;-50
2023/09/28 07:35:55;;;;;;;;;;;22.80;74.10;;;;;;5121138;28;20021;-48
2023/09/28 07:38:21;;;;;;;;;;;22.80;74.10;;;;;;5122438;28;19915;-49
2023/09/28 07:40:47;;;;;;;;;;;22.80;74.00;;;;;;5118279;28;19975;-48
2023/09/28 07:43:13;;;;;;;;;;;22.70;74.00;;;;;;5126120;28;20382;-49
2023/09/28 07:45:40;;;;;;;;;;;22.80;74.10;;;;;;5124149;27;19918;-49
2023/09/28 07:48:06;;;;;;;;;;;22.80;74.10;;;;;;5118166;28;19911;-49
2023/09/28 07:50:32;;;;;;;;;;;22.70;74.10;;;;;;5117076;28;20646;-50
2023/09/28 07:52:59;;;;;;;;;;;22.70;74.10;;;;;;5113588;28;19918;-49
2023/09/28 07:55:24;;;;;;;;;;;22.70;74.10;;;;;;5124976;27;19920;-50
2023/09/28 07:57:50;;;;;;;;;;;22.70;74.20;;;;;;5123176;28;19928;-49
2023/09/28 08:00:17;;;;;;;;;;;22.70;74.20;;;;;;5124460;28;19951;-52
2023/09/28 08:02:43;;;;;;;;;;;22.70;74.20;;;;;;5123227;28;19923;-50
2023/09/28 08:05:09;;;;;;;;;;;22.70;74.20;;;;;;5114437;27;19954;-50
2023/09/28 08:07:35;;;;;;;;;;;22.70;74.10;;;;;;5117020;28;19912;-49
2023/09/28 08:10:01;;;;;;;;;;;22.70;74.10;;;;;;5125791;28;19915;-49
2023/09/28 08:12:27;;;;;;;;;;;22.60;74.10;;;;;;5124110;27;19919;-49
2023/09/28 08:14:53;;;;;;;;;;;22.60;74.10;;;;;;5114100;28;19920;-49
2023/09/28 08:17:20;;;;;;;;;;;22.60;74.20;;;;;;5114421;28;19922;-50
2023/09/28 08:19:46;;;;;;;;;;;22.60;74.20;;;;;;5117575;28;19938;-50
2023/09/28 08:22:12;;;;;;;;;;;22.60;74.20;;;;;;5125800;28;19907;-51
2023/09/28 08:24:39;;;;;;;;;;;22.60;74.20;;;;;;5119750;28;19912;-49
2023/09/28 08:27:05;;;;;;;;;;;22.60;74.20;;;;;;5106869;28;19947;-48
2023/09/28 08:29:31;;;;;;;;;;;22.60;74.20;;;;;;5124669;28;19937;-49
2023/09/28 08:31:57;;;;;;;;;;;22.60;74.20;;;;;;5125014;27;19930;-48
2023/09/28 08:34:23;;;;;;;;;;;22.60;74.20;;;;;;5120788;28;20338;-49
2023/09/28 08:36:50;;;;;;;;;;;22.60;74.30;;;;;;5120231;28;19911;-49
2023/09/28 08:39:16;;;;;;;;;;;22.50;74.20;;;;;;5125829;27;19911;-48
2023/09/28 08:41:47;;;;;;;;;;;22.60;74.30;;;;;;5121611;28;20352;-49
2023/09/28 08:44:13;;;;;;;;;;;22.50;74.20;;;;;;5114518;28;20462;-48
2023/09/28 08:46:39;;;;;;;;;;;22.50;74.20;;;;;;5128487;27;20577;-50
2023/09/28 08:49:06;;;;;;;;;;;22.50;74.30;;;;;;5120590;28;19958;-50
2023/09/28 08:51:32;;;;;;;;;;;22.50;74.30;;;;;;5122866;28;19911;-51
2023/09/28 08:53:59;;;;;;;;;;;22.50;74.40;;;;;;5124369;28;19912;-49
2023/09/28 08:56:25;;;;;;;;;;;22.50;74.40;;;;;;5124239;28;19911;-50
2023/09/28 08:58:51;;;;;;;;;;;22.50;74.30;;;;;;5119584;28;19912;-49
2023/09/28 09:01:17;;;;;;;;;;;22.50;74.40;;;;;;5118850;27;20395;-48
2023/09/28 09:03:43;;;;;;;;;;;22.50;74.50;;;;;;5122399;28;19934;-51
2023/09/28 09:06:09;;;;;;;;;;;22.40;74.30;;;;;;5114988;28;20883;-49
2023/09/28 09:08:35;;;;;;;;;;;22.40;74.40;;;;;;5137926;27;19907;-49
2023/09/28 09:11:01;;;;;;;;;;;22.40;74.30;;;;;;5105545;28;19977;-49
2023/09/28 09:13:29;;;;;;;;;;;22.50;74.50;;;;;;5119652;28;19904;-49
2023/09/28 09:15:55;;;;;;;;;;;22.40;74.40;;;;;;5115119;28;20022;-49
2023/09/28 09:18:24;;;;;;;;;;;22.40;74.40;;;;;;5123083;27;19911;-48
2023/09/28 09:20:50;;;;;;;;;;;22.40;74.50;;;;;;5123525;28;19940;-49
2023/09/28 09:23:16;;;;;;;;;;;22.40;74.50;;;;;;5123958;28;20604;-48
2023/09/28 09:25:47;;;;;;;;;;;22.40;74.50;;;;;;5123373;28;19958;-49
2023/09/28 09:28:13;;;;;;;;;;;22.40;74.50;;;;;;5123892;27;19980;-48
2023/09/28 09:30:40;;;;;;;;;;;22.40;74.50;;;;;;5123516;28;19948;-50
2023/09/28 09:33:09;;;;;;;;;;;22.40;74.50;;;;;;5117207;28;19914;-49
2023/09/28 09:35:38;;;;;;;;;;;22.40;74.60;;;;;;5121761;28;19916;-49
2023/09/28 09:38:03;;;;;;;;;;;22.30;74.50;;;;;;5116314;28;19935;-50
2023/09/28 09:40:31;;;;;;;;;;;22.30;74.50;;;;;;5116684;28;19916;-48
2023/09/28 09:43:06;;;;;;;;;;;22.40;74.60;;;;;;5102941;28;19915;-49
2023/09/28 09:45:36;;;;;;;;;;;22.30;74.50;;;;;;5120520;28;19915;-47
2023/09/28 09:48:02;;;;;;;;;;;22.40;74.70;;;;;;5128707;27;19911;-49
2023/09/28 09:50:29;;;;;;;;;;;22.30;74.60;;;;;;5121417;28;20507;-48
2023/09/28 09:52:55;;;;;;;;;;;22.30;74.60;;;;;;5115535;28;19911;-49
2023/09/28 09:55:21;;;;;;;;;;;22.30;74.60;;;;;;5121405;27;19922;-49
2023/09/28 09:57:47;;;;;;;;;;;22.30;74.60;;;;;;5121424;28;19939;-48
2023/09/28 10:00:15;;;;;;;;;;;22.30;74.60;;;;;;5099870;28;19975;-48
2023/09/28 10:02:42;;;;;;;;;;;22.30;74.60;;;;;;5119615;27;19944;-48
2023/09/28 10:05:13;;;;;;;;;;;22.30;74.70;;;;;;5123209;28;19984;-47
2023/09/28 10:07:39;;;;;;;;;;;22.30;74.60;;;;;;5104650;28;19938;-48
2023/09/28 10:10:06;;;;;;;;;;;22.20;75.30;;;;;;5123486;28;19911;-47
2023/09/28 10:12:31;;;;;;;;;;;22.30;74.60;;;;;;5118420;28;19987;-47
2023/09/28 10:14:58;;;;;;;;;;;22.20;74.60;;;;;;5114705;28;19962;-47
2023/09/28 10:17:25;;;;;;;;;;;22.20;74.60;;;;;;5119464;28;19911;-48
2023/09/28 10:19:52;;;;;;;;;;;22.20;74.60;;;;;;5098027;28;19914;-47
2023/09/28 10:22:19;;;;;;;;;;;22.20;74.60;;;;;;5123319;28;19911;-50
2023/09/28 10:24:45;;;;;;;;;;;22.20;74.60;;;;;;5134220;27;20020;-49
2023/09/28 10:27:11;;;;;;;;;;;22.20;74.60;;;;;;5122159;28;19922;-48
2023/09/28 10:29:37;;;;;;;;;;;22.20;74.60;;;;;;5120777;28;19911;-48
2023/09/28 10:32:27;;;;;;;;;;;22.20;74.70;;;;;;5126958;27;19919;-48
2023/09/28 10:35:11;;;;;;;;;;;22.20;74.70;;;;;;5108213;28;19919;-48
2023/09/28 10:37:37;;;;;;;;;;;22.20;74.70;;;;;;5122069;28;19919;-48
2023/09/28 10:40:03;;;;;;;;;;;22.10;74.70;;;;;;5110956;28;19923;-48
2023/09/28 10:42:30;;;;;;;;;;;22.20;74.80;;;;;;5132724;27;19983;-48
2023/09/28 10:44:56;;;;;;;;;;;22.10;74.70;;;;;;5121536;28;19911;-48
2023/09/28 10:47:23;;;;;;;;;;;22.10;74.70;;;;;;5118566;28;19918;-48
2023/09/28 10:49:57;;;;;;;;;;;22.10;74.70;;;;;;5117263;28;20613;-50
2023/09/28 10:52:23;;;;;;;;;;;22.10;74.70;;;;;;5122853;28;20469;-49
2023/09/28 10:54:49;;;;;;;;;;;22.10;74.70;;;;;;5121561;28;19979;-49
2023/09/28 10:57:15;;;;;;;;;;;22.10;74.70;;;;;;5122031;28;19915;-49
2023/09/28 10:59:41;;;;;;;;;;;22.10;74.70;;;;;;5121707;28;19954;-49
2023/09/28 11:02:08;;;;;;;;;;;22.10;75.50;;;;;;5124453;28;20371;-48
2023/09/28 11:04:36;;;;;;;;;;;22.10;74.80;;;;;;5122438;28;19908;-51
2023/09/28 11:07:03;;;;;;;;;;;22.10;74.80;;;;;;5116153;28;19919;-51
2023/09/28 11:09:29;;;;;;;;;;;22.10;74.70;;;;;;5121234;28;19999;-50
2023/09/28 11:11:55;;;;;;;;;;;22.10;74.80;;;;;;5121702;28;19955;-49
2023/09/28 11:14:25;;;;;;;;;;;22.00;74.70;;;;;;5122911;28;19920;-48
2023/09/28 11:16:52;;;;;;;;;;;22.00;74.80;;;;;;5104591;28;19922;-50
2023/09/28 11:19:19;;;;;;;;;;;22.00;74.70;;;;;;5122443;28;19927;-50
2023/09/28 11:21:45;;;;;;;;;;;22.00;74.80;;;;;;5126559;27;19912;-52
2023/09/28 11:24:14;;;;;;;;;;;22.00;74.70;;;;;;5118982;28;19908;-48
2023/09/28 11:26:40;;;;;;;;;;;22.00;74.70;;;;;;5126236;28;19911;-50
2023/09/28 11:29:06;;;;;;;;;;;22.00;74.80;;;;;;5104888;28;19916;-50
2023/09/28 11:31:35;;;;;;;;;;;22.00;74.80;;;;;;5124464;28;20349;-49
2023/09/28 11:34:02;;;;;;;;;;;22.00;74.80;;;;;;5124340;27;20443;-49
2023/09/28 11:36:28;;;;;;;;;;;22.00;74.80;;;;;;5123136;28;19911;-49
2023/09/28 11:38:55;;;;;;;;;;;21.90;74.70;;;;;;5125526;27;19908;-50
2023/09/28 11:41:22;;;;;;;;;;;22.00;74.80;;;;;;5124888;27;19934;-50
2023/09/28 11:43:52;;;;;;;;;;;21.90;75.50;;;;;;5124186;27;19912;-48
2023/09/28 11:46:22;;;;;;;;;;;21.90;74.80;;;;;;5122198;27;19912;-51
2023/09/28 11:49:01;;;;;;;;;;;21.90;74.80;;;;;;5134557;27;19913;-48
2023/09/28 11:51:29;;;;;;;;;;;21.90;74.90;;;;;;5125935;28;19908;-49
2023/09/28 11:53:55;;;;;;;;;;;21.90;74.80;;;;;;5117784;28;20423;-48
2023/09/28 11:56:22;;;;;;;;;;;21.90;74.80;;;;;;5123919;28;19969;-51
2023/09/28 11:58:48;;;;;;;;;;;21.90;74.90;;;;;;5124828;27;20010;-52
2023/09/28 12:01:14;;;;;;;;;;;21.90;74.90;;;;;;5141286;27;20015;-48
2023/09/28 12:03:40;;;;;;;;;;;21.90;74.90;;;;;;5127400;27;19918;-50
2023/09/28 12:06:05;;;;;;;;;;;21.90;74.90;;;;;;5123066;28;19914;-47
2023/09/28 12:08:31;;;;;;;;;;;21.90;74.90;;;;;;5125002;28;19976;-57
2023/09/28 12:10:57;;;;;;;;;;;21.80;74.90;;;;;;5125572;28;19912;-49
2023/09/28 12:13:26;;;;;;;;;;;21.80;74.90;;;;;;5124980;28;19972;-49
2023/09/28 12:15:54;;;;;;;;;;;21.80;74.90;;;;;;5123499;27;19926;-48
2023/09/28 12:18:20;;;;;;;;;;;21.80;74.90;;;;;;5124992;27;19912;-48
2023/09/28 12:20:46;;;;;;;;;;;21.80;74.90;;;;;;5121394;28;19926;-50
2023/09/28 12:23:12;;;;;;;;;;;21.80;74.90;;;;;;5116868;28;19907;-47
2023/09/28 12:25:38;;;;;;;;;;;21.80;74.90;;;;;;5123635;28;19959;-47
2023/09/28 12:28:04;;;;;;;;;;;21.80;75.10;;;;;;5123595;28;19912;-51
2023/09/28 12:30:30;;;;;;;;;;;21.80;75.00;;;;;;5124844;28;19908;-48
2023/09/28 12:32:57;;;;;;;;;;;21.80;75.00;;;;;;5125555;27;19996;-49
2023/09/28 12:35:23;;;;;;;;;;;21.80;75.00;;;;;;5099669;28;19927;-50
2023/09/28 12:37:49;;;;;;;;;;;21.80;75.00;;;;;;5123109;28;19964;-49
2023/09/28 12:40:17;;;;;;;;;;;21.70;74.90;;;;;;5117004;28;19907;-47
2023/09/28 12:42:43;;;;;;;;;;;21.70;74.90;;;;;;5124236;27;19970;-48
2023/09/28 12:45:09;;;;;;;;;;;21.70;75.00;;;;;;5117149;28;19958;-48
2023/09/28 12:47:35;;;;;;;;;;;21.70;75.00;;;;;;5120358;27;19912;-47
2023/09/28 12:50:02;;;;;;;;;;;21.70;75.00;;;;;;5138703;27;19951;-48
2023/09/28 12:52:28;;;;;;;;;;;21.70;75.00;;;;;;5117625;28;19915;-47
2023/09/28 12:54:54;;;;;;;;;;;21.70;75.00;;;;;;5124130;28;20042;-52
2023/09/28 12:57:21;;;;;;;;;;;21.70;75.00;;;;;;5123654;28;20411;-49
2023/09/28 12:59:47;;;;;;;;;;;21.70;75.00;;;;;;5123742;28;19912;-48
2023/09/28 13:02:13;;;;;;;;;;;21.70;75.00;;;;;;5123093;27;20407;-47
2023/09/28 13:04:39;;;;;;;;;;;21.70;75.00;;;;;;5121483;28;19979;-49
2023/09/28 13:07:05;;;;;;;;;;;21.70;75.00;;;;;;5124782;28;19933;-48
2023/09/28 13:09:32;;;;;;;;;;;21.70;75.10;;;;;;5122889;27;20537;-48
2023/09/28 13:11:58;;;;;;;;;;;21.70;75.20;;;;;;5115714;28;19918;-50
2023/09/28 13:14:27;;;;;;;;;;;21.70;75.20;;;;;;5097722;28;19923;-48
2023/09/28 13:16:55;;;;;;;;;;;21.60;75.00;;;;;;5123718;28;20022;-49
2023/09/28 13:19:25;;;;;;;;;;;21.60;75.10;;;;;;5123662;28;19912;-48
2023/09/28 13:21:56;;;;;;;;;;;21.60;75.00;;;;;;5119688;28;19918;-49
2023/09/28 13:24:22;;;;;;;;;;;21.60;75.00;;;;;;5125001;28;19915;-50
2023/09/28 13:26:48;;;;;;;;;;;21.60;75.10;;;;;;5122565;28;19915;-48
2023/09/28 13:29:16;;;;;;;;;;;21.60;75.10;;;;;;5138143;27;19939;-52
2023/09/28 13:31:43;;;;;;;;;;;21.60;75.20;;;;;;5123084;27;19971;-48
2023/09/28 13:34:11;;;;;;;;;;;21.60;75.10;;;;;;5117729;28;19935;-49
2023/09/28 13:36:37;;;;;;;;;;;21.60;75.10;;;;;;5122860;28;19911;-49
2023/09/28 13:39:04;;;;;;;;;;;21.60;75.20;;;;;;5119592;28;19982;-49
2023/09/28 13:41:31;;;;;;;;;;;21.60;75.20;;;;;;5123156;27;19929;-49
2023/09/28 13:43:58;;;;;;;;;;;21.60;75.10;;;;;;5128437;27;20274;-47
2023/09/28 13:46:24;;;;;;;;;;;21.60;75.20;;;;;;5119837;27;19911;-48
2023/09/28 13:48:51;;;;;;;;;;;21.60;75.20;;;;;;5122161;28;19919;-48
2023/09/28 13:51:18;;;;;;;;;;;21.60;75.20;;;;;;5115675;28;19933;-48
2023/09/28 13:53:44;;;;;;;;;;;21.60;76.00;;;;;;5122906;28;20430;-48
2023/09/28 13:56:10;;;;;;;;;;;21.60;75.20;;;;;;5121973;28;19942;-49
2023/09/28 13:58:38;;;;;;;;;;;21.60;75.20;;;;;;5122082;28;20487;-48
2023/09/28 14:01:06;;;;;;;;;;;21.60;75.20;;;;;;5122800;28;19908;-49
2023/09/28 14:03:32;;;;;;;;;;;21.60;75.20;;;;;;5104233;28;19939;-50
2023/09/28 14:05:58;;;;;;;;;;;21.60;75.30;;;;;;5123065;27;19991;-49
2023/09/28 14:08:25;;;;;;;;;;;21.60;75.30;;;;;;5123569;28;19911;-47
2023/09/28 14:10:51;;;;;;;;;;;21.60;75.20;;;;;;5119046;28;19911;-49
2023/09/28 14:13:17;;;;;;;;;;;21.50;75.30;;;;;;5118975;28;19911;-47